sensor_id;sensor_type;location;lat;lon;timestamp;P1;durP1;ratioP1;P2;durP2;ratioP2
14358;SDS011;7263;49.418;11.064;2024-01-30T00:00:13;6.63;;;5.63;;
14358;SDS011;7263;49.418;11.064;2024-01-30T00:02:43;8.47;;;6.13;;
14358;SDS011;7263;49.418;11.064;2024-01-30T00:05:12;8.90;;;5.77;;
14358;SDS011;7263;49.418;11.064;2024-01-30T00:07:41;7.90;;;5.50;;
14358;SDS011;7263;49.418;11.064;2024-01-30T00:10:08;5.93;;;5.00;;
14358;SDS011;7263;49.418;11.064;2024-01-30T00:12:38;7.17;;;5.60;;
14358;SDS011;7263;49.418;11.064;2024-01-30T00:15:10;7.70;;;5.90;;
14358;SDS011;7263;49.418;11.064;2024-01-30T00:17:37;10.60;;;7.00;;
14358;SDS011;7263;49.418;11.064;2024-01-30T00:20:06;10.83;;;6.97;;
14358;SDS011;7263;49.418;11.064;2024-01-30T00:22:35;9.77;;;6.90;;
14358;SDS011;7263;49.418;11.064;2024-01-30T00:25:02;9.83;;;7.57;;
14358;SDS011;7263;49.418;11.064;2024-01-30T00:27:35;10.00;;;7.87;;
14358;SDS011;7263;49.418;11.064;2024-01-30T00:30:09;11.43;;;7.90;;
14358;SDS011;7263;49.418;11.064;2024-01-30T00:32:36;11.60;;;7.47;;
14358;SDS011;7263;49.418;11.064;2024-01-30T00:35:03;9.63;;;7.17;;
14358;SDS011;7263;49.418;11.064;2024-01-30T00:37:38;8.83;;;7.10;;
14358;SDS011;7263;49.418;11.064;2024-01-30T00:40:15;11.77;;;7.17;;
14358;SDS011;7263;49.418;11.064;2024-01-30T00:42:43;8.20;;;5.70;;
14358;SDS011;7263;49.418;11.064;2024-01-30T00:45:12;7.67;;;6.13;;
14358;SDS011;7263;49.418;11.064;2024-01-30T00:47:43;6.93;;;5.33;;
14358;SDS011;7263;49.418;11.064;2024-01-30T00:50:11;8.57;;;5.40;;
14358;SDS011;7263;49.418;11.064;2024-01-30T00:52:41;7.37;;;5.73;;
14358;SDS011;7263;49.418;11.064;2024-01-30T00:55:11;6.87;;;5.17;;
14358;SDS011;7263;49.418;11.064;2024-01-30T00:57:37;7.93;;;5.93;;
14358;SDS011;7263;49.418;11.064;2024-01-30T01:00:11;7.57;;;4.87;;
14358;SDS011;7263;49.418;11.064;2024-01-30T01:02:44;7.03;;;5.03;;
14358;SDS011;7263;49.418;11.064;2024-01-30T01:05:11;7.13;;;5.20;;
14358;SDS011;7263;49.418;11.064;2024-01-30T01:07:38;6.23;;;4.80;;
14358;SDS011;7263;49.418;11.064;2024-01-30T01:10:09;6.80;;;6.07;;
14358;SDS011;7263;49.418;11.064;2024-01-30T01:12:38;7.13;;;5.63;;
14358;SDS011;7263;49.418;11.064;2024-01-30T01:15:08;6.07;;;4.63;;
14358;SDS011;7263;49.418;11.064;2024-01-30T01:17:38;6.40;;;5.27;;
14358;SDS011;7263;49.418;11.064;2024-01-30T01:20:11;5.80;;;4.47;;
14358;SDS011;7263;49.418;11.064;2024-01-30T01:22:38;6.60;;;4.30;;
14358;SDS011;7263;49.418;11.064;2024-01-30T01:25:05;6.03;;;4.60;;
14358;SDS011;7263;49.418;11.064;2024-01-30T01:27:37;6.77;;;4.37;;
14358;SDS011;7263;49.418;11.064;2024-01-30T01:30:07;4.90;;;4.07;;
14358;SDS011;7263;49.418;11.064;2024-01-30T01:32:43;5.00;;;4.00;;
14358;SDS011;7263;49.418;11.064;2024-01-30T01:35:16;5.00;;;4.10;;
14358;SDS011;7263;49.418;11.064;2024-01-30T01:37:56;7.27;;;3.90;;
14358;SDS011;7263;49.418;11.064;2024-01-30T01:40:31;7.20;;;4.00;;
14358;SDS011;7263;49.418;11.064;2024-01-30T01:43:10;5.43;;;4.13;;
14358;SDS011;7263;49.418;11.064;2024-01-30T01:45:37;5.53;;;3.50;;
14358;SDS011;7263;49.418;11.064;2024-01-30T01:48:07;5.87;;;3.47;;
14358;SDS011;7263;49.418;11.064;2024-01-30T01:50:34;4.60;;;3.20;;
14358;SDS011;7263;49.418;11.064;2024-01-30T01:53:11;4.40;;;3.97;;
14358;SDS011;7263;49.418;11.064;2024-01-30T01:55:39;4.40;;;3.57;;
14358;SDS011;7263;49.418;11.064;2024-01-30T01:58:09;5.03;;;3.70;;
14358;SDS011;7263;49.418;11.064;2024-01-30T02:00:40;5.83;;;3.50;;
14358;SDS011;7263;49.418;11.064;2024-01-30T02:03:08;3.67;;;3.27;;
14358;SDS011;7263;49.418;11.064;2024-01-30T02:05:36;4.33;;;3.60;;
14358;SDS011;7263;49.418;11.064;2024-01-30T02:08:04;6.27;;;3.80;;
14358;SDS011;7263;49.418;11.064;2024-01-30T02:10:32;3.87;;;3.30;;
14358;SDS011;7263;49.418;11.064;2024-01-30T02:12:59;4.10;;;3.03;;
14358;SDS011;7263;49.418;11.064;2024-01-30T02:15:34;5.07;;;3.60;;
14358;SDS011;7263;49.418;11.064;2024-01-30T02:18:03;4.53;;;3.37;;
14358;SDS011;7263;49.418;11.064;2024-01-30T02:20:35;4.00;;;3.60;;
14358;SDS011;7263;49.418;11.064;2024-01-30T02:23:08;4.27;;;3.33;;
14358;SDS011;7263;49.418;11.064;2024-01-30T02:25:37;3.70;;;3.27;;
14358;SDS011;7263;49.418;11.064;2024-01-30T02:28:09;4.53;;;3.07;;
14358;SDS011;7263;49.418;11.064;2024-01-30T02:30:36;4.73;;;3.63;;
14358;SDS011;7263;49.418;11.064;2024-01-30T02:33:05;4.47;;;3.50;;
14358;SDS011;7263;49.418;11.064;2024-01-30T02:35:35;5.17;;;3.63;;
14358;SDS011;7263;49.418;11.064;2024-01-30T02:38:02;6.13;;;3.57;;
14358;SDS011;7263;49.418;11.064;2024-01-30T02:40:31;5.13;;;3.93;;
14358;SDS011;7263;49.418;11.064;2024-01-30T02:43:01;6.50;;;3.80;;
14358;SDS011;7263;49.418;11.064;2024-01-30T02:45:31;4.17;;;3.67;;
14358;SDS011;7263;49.418;11.064;2024-01-30T02:47:58;5.37;;;3.47;;
14358;SDS011;7263;49.418;11.064;2024-01-30T02:50:25;5.23;;;3.73;;
14358;SDS011;7263;49.418;11.064;2024-01-30T02:52:52;4.03;;;3.60;;
14358;SDS011;7263;49.418;11.064;2024-01-30T02:55:21;5.60;;;3.70;;
14358;SDS011;7263;49.418;11.064;2024-01-30T02:58:00;5.33;;;3.73;;
14358;SDS011;7263;49.418;11.064;2024-01-30T03:00:28;3.93;;;3.50;;
14358;SDS011;7263;49.418;11.064;2024-01-30T03:02:55;6.00;;;4.03;;
14358;SDS011;7263;49.418;11.064;2024-01-30T03:05:27;5.47;;;4.20;;
14358;SDS011;7263;49.418;11.064;2024-01-30T03:07:56;4.63;;;3.93;;
14358;SDS011;7263;49.418;11.064;2024-01-30T03:10:25;4.90;;;3.83;;
14358;SDS011;7263;49.418;11.064;2024-01-30T03:12:54;4.97;;;4.07;;
14358;SDS011;7263;49.418;11.064;2024-01-30T03:15:28;6.03;;;3.87;;
14358;SDS011;7263;49.418;11.064;2024-01-30T03:17:54;6.20;;;4.70;;
14358;SDS011;7263;49.418;11.064;2024-01-30T03:20:26;5.30;;;3.90;;
14358;SDS011;7263;49.418;11.064;2024-01-30T03:23:00;4.50;;;3.60;;
14358;SDS011;7263;49.418;11.064;2024-01-30T03:25:27;5.03;;;4.40;;
14358;SDS011;7263;49.418;11.064;2024-01-30T03:27:56;5.07;;;4.10;;
14358;SDS011;7263;49.418;11.064;2024-01-30T03:30:28;5.83;;;3.93;;
14358;SDS011;7263;49.418;11.064;2024-01-30T03:32:59;7.90;;;5.07;;
14358;SDS011;7263;49.418;11.064;2024-01-30T03:35:26;6.77;;;4.10;;
14358;SDS011;7263;49.418;11.064;2024-01-30T03:37:52;5.33;;;4.27;;
14358;SDS011;7263;49.418;11.064;2024-01-30T03:40:22;5.33;;;4.20;;
14358;SDS011;7263;49.418;11.064;2024-01-30T03:42:53;5.10;;;4.10;;
14358;SDS011;7263;49.418;11.064;2024-01-30T03:45:23;5.97;;;4.20;;
14358;SDS011;7263;49.418;11.064;2024-01-30T03:47:51;5.00;;;4.00;;
14358;SDS011;7263;49.418;11.064;2024-01-30T03:50:18;5.17;;;4.10;;
14358;SDS011;7263;49.418;11.064;2024-01-30T03:52:45;5.10;;;3.97;;
14358;SDS011;7263;49.418;11.064;2024-01-30T03:55:14;5.03;;;4.27;;
14358;SDS011;7263;49.418;11.064;2024-01-30T03:57:41;5.23;;;3.93;;
14358;SDS011;7263;49.418;11.064;2024-01-30T04:00:08;5.60;;;4.37;;
14358;SDS011;7263;49.418;11.064;2024-01-30T04:02:35;4.80;;;4.23;;
14358;SDS011;7263;49.418;11.064;2024-01-30T04:05:04;7.47;;;6.10;;
14358;SDS011;7263;49.418;11.064;2024-01-30T04:07:31;6.23;;;4.97;;
14358;SDS011;7263;49.418;11.064;2024-01-30T04:10:00;5.47;;;4.63;;
14358;SDS011;7263;49.418;11.064;2024-01-30T04:12:29;6.97;;;5.30;;
14358;SDS011;7263;49.418;11.064;2024-01-30T04:15:02;10.07;;;7.50;;
14358;SDS011;7263;49.418;11.064;2024-01-30T04:17:31;6.37;;;4.23;;
14358;SDS011;7263;49.418;11.064;2024-01-30T04:19:58;5.93;;;5.23;;
14358;SDS011;7263;49.418;11.064;2024-01-30T04:22:26;27.00;;;19.73;;
14358;SDS011;7263;49.418;11.064;2024-01-30T04:24:53;15.23;;;10.00;;
14358;SDS011;7263;49.418;11.064;2024-01-30T04:27:21;6.80;;;5.47;;
14358;SDS011;7263;49.418;11.064;2024-01-30T04:29:51;6.90;;;5.40;;
14358;SDS011;7263;49.418;11.064;2024-01-30T04:32:18;6.60;;;5.17;;
14358;SDS011;7263;49.418;11.064;2024-01-30T04:34:44;7.17;;;5.73;;
14358;SDS011;7263;49.418;11.064;2024-01-30T04:37:14;6.13;;;5.10;;
14358;SDS011;7263;49.418;11.064;2024-01-30T04:39:42;8.07;;;7.27;;
14358;SDS011;7263;49.418;11.064;2024-01-30T04:42:12;8.30;;;6.27;;
14358;SDS011;7263;49.418;11.064;2024-01-30T04:44:44;12.27;;;9.40;;
14358;SDS011;7263;49.418;11.064;2024-01-30T04:47:11;9.87;;;7.87;;
14358;SDS011;7263;49.418;11.064;2024-01-30T04:49:38;9.67;;;7.20;;
14358;SDS011;7263;49.418;11.064;2024-01-30T04:52:05;8.30;;;5.27;;
14358;SDS011;7263;49.418;11.064;2024-01-30T04:54:35;6.50;;;4.77;;
14358;SDS011;7263;49.418;11.064;2024-01-30T04:57:06;7.33;;;5.80;;
14358;SDS011;7263;49.418;11.064;2024-01-30T04:59:42;6.00;;;5.40;;
14358;SDS011;7263;49.418;11.064;2024-01-30T05:02:11;7.53;;;5.80;;
14358;SDS011;7263;49.418;11.064;2024-01-30T05:04:38;6.70;;;5.70;;
14358;SDS011;7263;49.418;11.064;2024-01-30T05:07:06;6.90;;;5.53;;
14358;SDS011;7263;49.418;11.064;2024-01-30T05:09:33;6.43;;;5.40;;
14358;SDS011;7263;49.418;11.064;2024-01-30T05:12:08;5.33;;;4.83;;
14358;SDS011;7263;49.418;11.064;2024-01-30T05:14:35;5.07;;;4.60;;
14358;SDS011;7263;49.418;11.064;2024-01-30T05:17:04;6.33;;;5.33;;
14358;SDS011;7263;49.418;11.064;2024-01-30T05:19:38;5.70;;;5.10;;
14358;SDS011;7263;49.418;11.064;2024-01-30T05:22:05;6.73;;;4.70;;
14358;SDS011;7263;49.418;11.064;2024-01-30T05:24:32;7.47;;;5.20;;
14358;SDS011;7263;49.418;11.064;2024-01-30T05:26:59;6.00;;;4.90;;
14358;SDS011;7263;49.418;11.064;2024-01-30T05:29:30;6.43;;;5.30;;
14358;SDS011;7263;49.418;11.064;2024-01-30T05:31:57;7.70;;;5.47;;
14358;SDS011;7263;49.418;11.064;2024-01-30T05:34:24;6.80;;;5.27;;
14358;SDS011;7263;49.418;11.064;2024-01-30T05:36:53;6.80;;;5.10;;
14358;SDS011;7263;49.418;11.064;2024-01-30T05:39:20;8.33;;;5.13;;
14358;SDS011;7263;49.418;11.064;2024-01-30T05:41:47;6.37;;;4.87;;
14358;SDS011;7263;49.418;11.064;2024-01-30T05:44:13;7.33;;;5.13;;
14358;SDS011;7263;49.418;11.064;2024-01-30T05:46:42;7.07;;;5.90;;
14358;SDS011;7263;49.418;11.064;2024-01-30T05:49:08;6.97;;;5.50;;
14358;SDS011;7263;49.418;11.064;2024-01-30T05:51:35;9.27;;;5.87;;
14358;SDS011;7263;49.418;11.064;2024-01-30T05:54:02;6.23;;;5.13;;
14358;SDS011;7263;49.418;11.064;2024-01-30T05:56:32;6.50;;;5.50;;
14358;SDS011;7263;49.418;11.064;2024-01-30T05:58:59;6.83;;;5.27;;
14358;SDS011;7263;49.418;11.064;2024-01-30T06:01:25;8.23;;;5.80;;
14358;SDS011;7263;49.418;11.064;2024-01-30T06:03:56;7.07;;;6.13;;
14358;SDS011;7263;49.418;11.064;2024-01-30T06:06:30;7.53;;;5.80;;
14358;SDS011;7263;49.418;11.064;2024-01-30T06:08:56;7.57;;;5.80;;
14358;SDS011;7263;49.418;11.064;2024-01-30T06:11:23;6.93;;;6.13;;
14358;SDS011;7263;49.418;11.064;2024-01-30T06:13:55;6.93;;;5.50;;
14358;SDS011;7263;49.418;11.064;2024-01-30T06:16:22;7.47;;;5.70;;
14358;SDS011;7263;49.418;11.064;2024-01-30T06:18:54;7.97;;;5.70;;
14358;SDS011;7263;49.418;11.064;2024-01-30T06:21:25;6.87;;;5.87;;
14358;SDS011;7263;49.418;11.064;2024-01-30T06:24:03;7.87;;;5.80;;
14358;SDS011;7263;49.418;11.064;2024-01-30T06:26:32;7.93;;;5.47;;
14358;SDS011;7263;49.418;11.064;2024-01-30T06:29:00;8.97;;;6.43;;
14358;SDS011;7263;49.418;11.064;2024-01-30T06:31:30;9.47;;;7.77;;
14358;SDS011;7263;49.418;11.064;2024-01-30T06:34:02;8.37;;;7.33;;
14358;SDS011;7263;49.418;11.064;2024-01-30T06:36:30;8.83;;;6.67;;
14358;SDS011;7263;49.418;11.064;2024-01-30T06:38:57;35.33;;;28.67;;
14358;SDS011;7263;49.418;11.064;2024-01-30T06:41:31;24.47;;;19.67;;
14358;SDS011;7263;49.418;11.064;2024-01-30T06:44:04;53.93;;;38.97;;
14358;SDS011;7263;49.418;11.064;2024-01-30T06:46:33;16.03;;;12.87;;
14358;SDS011;7263;49.418;11.064;2024-01-30T06:49:00;9.40;;;7.03;;
14358;SDS011;7263;49.418;11.064;2024-01-30T06:51:27;9.33;;;6.83;;
14358;SDS011;7263;49.418;11.064;2024-01-30T06:54:00;8.37;;;6.83;;
14358;SDS011;7263;49.418;11.064;2024-01-30T06:56:30;10.80;;;7.57;;
14358;SDS011;7263;49.418;11.064;2024-01-30T06:58:57;11.07;;;8.20;;
14358;SDS011;7263;49.418;11.064;2024-01-30T07:01:33;18.03;;;14.37;;
14358;SDS011;7263;49.418;11.064;2024-01-30T07:04:01;10.00;;;7.63;;
14358;SDS011;7263;49.418;11.064;2024-01-30T07:06:31;8.93;;;8.03;;
14358;SDS011;7263;49.418;11.064;2024-01-30T07:08:58;11.20;;;8.77;;
14358;SDS011;7263;49.418;11.064;2024-01-30T07:11:28;10.20;;;7.70;;
14358;SDS011;7263;49.418;11.064;2024-01-30T07:14:04;9.57;;;7.97;;
14358;SDS011;7263;49.418;11.064;2024-01-30T07:16:31;9.23;;;7.43;;
14358;SDS011;7263;49.418;11.064;2024-01-30T07:19:00;10.00;;;7.93;;
14358;SDS011;7263;49.418;11.064;2024-01-30T07:21:27;10.07;;;7.80;;
14358;SDS011;7263;49.418;11.064;2024-01-30T07:24:00;9.80;;;8.40;;
14358;SDS011;7263;49.418;11.064;2024-01-30T07:26:28;11.83;;;9.23;;
14358;SDS011;7263;49.418;11.064;2024-01-30T07:28:58;10.37;;;9.20;;
14358;SDS011;7263;49.418;11.064;2024-01-30T07:31:27;12.47;;;9.63;;
14358;SDS011;7263;49.418;11.064;2024-01-30T07:33:56;12.73;;;8.93;;
14358;SDS011;7263;49.418;11.064;2024-01-30T07:36:23;10.23;;;8.87;;
14358;SDS011;7263;49.418;11.064;2024-01-30T07:38:53;10.47;;;8.53;;
14358;SDS011;7263;49.418;11.064;2024-01-30T07:41:20;9.30;;;8.27;;
14358;SDS011;7263;49.418;11.064;2024-01-30T07:43:49;10.43;;;8.20;;
14358;SDS011;7263;49.418;11.064;2024-01-30T07:46:21;12.10;;;11.00;;
14358;SDS011;7263;49.418;11.064;2024-01-30T07:48:51;9.50;;;8.50;;
14358;SDS011;7263;49.418;11.064;2024-01-30T07:51:23;11.37;;;8.70;;
14358;SDS011;7263;49.418;11.064;2024-01-30T07:53:50;10.03;;;8.60;;
14358;SDS011;7263;49.418;11.064;2024-01-30T07:56:20;12.77;;;10.70;;
14358;SDS011;7263;49.418;11.064;2024-01-30T07:58:46;9.80;;;8.10;;
14358;SDS011;7263;49.418;11.064;2024-01-30T08:01:25;10.47;;;8.27;;
14358;SDS011;7263;49.418;11.064;2024-01-30T08:03:52;9.70;;;7.93;;
14358;SDS011;7263;49.418;11.064;2024-01-30T08:06:24;10.30;;;8.13;;
14358;SDS011;7263;49.418;11.064;2024-01-30T08:08:51;11.10;;;8.30;;
14358;SDS011;7263;49.418;11.064;2024-01-30T08:11:20;11.77;;;8.10;;
14358;SDS011;7263;49.418;11.064;2024-01-30T08:13:52;10.57;;;8.57;;
14358;SDS011;7263;49.418;11.064;2024-01-30T08:16:18;12.63;;;8.13;;
14358;SDS011;7263;49.418;11.064;2024-01-30T08:18:51;8.17;;;7.37;;
14358;SDS011;7263;49.418;11.064;2024-01-30T08:21:20;9.53;;;8.03;;
14358;SDS011;7263;49.418;11.064;2024-01-30T08:23:51;12.60;;;9.10;;
14358;SDS011;7263;49.418;11.064;2024-01-30T08:26:20;8.97;;;8.07;;
14358;SDS011;7263;49.418;11.064;2024-01-30T08:28:47;9.57;;;8.40;;
14358;SDS011;7263;49.418;11.064;2024-01-30T08:31:23;10.63;;;7.50;;
14358;SDS011;7263;49.418;11.064;2024-01-30T08:33:50;11.37;;;7.70;;
14358;SDS011;7263;49.418;11.064;2024-01-30T08:36:17;8.77;;;7.87;;
14358;SDS011;7263;49.418;11.064;2024-01-30T08:38:44;10.80;;;7.93;;
14358;SDS011;7263;49.418;11.064;2024-01-30T08:41:13;8.73;;;7.83;;
14358;SDS011;7263;49.418;11.064;2024-01-30T08:43:40;11.63;;;7.73;;
14358;SDS011;7263;49.418;11.064;2024-01-30T08:46:07;9.40;;;7.97;;
14358;SDS011;7263;49.418;11.064;2024-01-30T08:48:42;9.57;;;7.60;;
14358;SDS011;7263;49.418;11.064;2024-01-30T08:51:23;9.13;;;7.93;;
14358;SDS011;7263;49.418;11.064;2024-01-30T08:53:52;9.57;;;8.60;;
14358;SDS011;7263;49.418;11.064;2024-01-30T08:56:21;11.27;;;8.90;;
14358;SDS011;7263;49.418;11.064;2024-01-30T08:59:00;11.27;;;8.80;;
14358;SDS011;7263;49.418;11.064;2024-01-30T09:01:27;11.93;;;10.70;;
14358;SDS011;7263;49.418;11.064;2024-01-30T09:04:01;11.17;;;8.73;;
14358;SDS011;7263;49.418;11.064;2024-01-30T09:06:27;16.27;;;13.07;;
14358;SDS011;7263;49.418;11.064;2024-01-30T09:08:56;10.17;;;8.80;;
14358;SDS011;7263;49.418;11.064;2024-01-30T09:11:30;9.67;;;7.60;;
14358;SDS011;7263;49.418;11.064;2024-01-30T09:13:57;12.30;;;8.97;;
14358;SDS011;7263;49.418;11.064;2024-01-30T09:16:27;10.93;;;8.23;;
14358;SDS011;7263;49.418;11.064;2024-01-30T09:18:57;12.00;;;8.03;;
14358;SDS011;7263;49.418;11.064;2024-01-30T09:21:25;12.87;;;8.50;;
14358;SDS011;7263;49.418;11.064;2024-01-30T09:24:03;10.77;;;7.50;;
14358;SDS011;7263;49.418;11.064;2024-01-30T09:26:32;10.30;;;7.87;;
14358;SDS011;7263;49.418;11.064;2024-01-30T09:28:59;9.90;;;7.87;;
14358;SDS011;7263;49.418;11.064;2024-01-30T09:31:26;13.27;;;9.37;;
14358;SDS011;7263;49.418;11.064;2024-01-30T09:33:56;11.10;;;7.83;;
14358;SDS011;7263;49.418;11.064;2024-01-30T09:36:23;13.23;;;7.60;;
14358;SDS011;7263;49.418;11.064;2024-01-30T09:38:54;10.23;;;7.33;;
14358;SDS011;7263;49.418;11.064;2024-01-30T09:41:21;10.87;;;7.10;;
14358;SDS011;7263;49.418;11.064;2024-01-30T09:43:50;9.60;;;7.10;;
14358;SDS011;7263;49.418;11.064;2024-01-30T09:46:26;9.10;;;7.13;;
14358;SDS011;7263;49.418;11.064;2024-01-30T09:48:54;10.37;;;6.90;;
14358;SDS011;7263;49.418;11.064;2024-01-30T09:51:24;8.53;;;6.67;;
14358;SDS011;7263;49.418;11.064;2024-01-30T09:53:55;8.93;;;7.10;;
14358;SDS011;7263;49.418;11.064;2024-01-30T09:56:24;9.43;;;6.87;;
14358;SDS011;7263;49.418;11.064;2024-01-30T09:58:56;9.13;;;6.90;;
14358;SDS011;7263;49.418;11.064;2024-01-30T10:01:26;11.47;;;6.93;;
14358;SDS011;7263;49.418;11.064;2024-01-30T10:03:53;8.77;;;7.13;;
14358;SDS011;7263;49.418;11.064;2024-01-30T10:06:20;9.20;;;7.50;;
14358;SDS011;7263;49.418;11.064;2024-01-30T10:08:52;8.93;;;7.07;;
14358;SDS011;7263;49.418;11.064;2024-01-30T10:11:23;8.27;;;6.57;;
14358;SDS011;7263;49.418;11.064;2024-01-30T10:13:50;7.30;;;6.50;;
14358;SDS011;7263;49.418;11.064;2024-01-30T10:16:19;8.73;;;6.67;;
14358;SDS011;7263;49.418;11.064;2024-01-30T10:18:46;11.47;;;6.83;;
14358;SDS011;7263;49.418;11.064;2024-01-30T10:21:16;7.73;;;6.87;;
14358;SDS011;7263;49.418;11.064;2024-01-30T10:23:46;10.13;;;7.17;;
14358;SDS011;7263;49.418;11.064;2024-01-30T10:26:15;8.23;;;6.97;;
14358;SDS011;7263;49.418;11.064;2024-01-30T10:28:48;9.10;;;7.53;;
14358;SDS011;7263;49.418;11.064;2024-01-30T10:31:16;7.97;;;6.50;;
14358;SDS011;7263;49.418;11.064;2024-01-30T10:33:50;8.27;;;6.20;;
14358;SDS011;7263;49.418;11.064;2024-01-30T10:36:20;8.87;;;6.93;;
14358;SDS011;7263;49.418;11.064;2024-01-30T10:38:59;8.10;;;7.20;;
14358;SDS011;7263;49.418;11.064;2024-01-30T10:41:29;8.53;;;7.40;;
14358;SDS011;7263;49.418;11.064;2024-01-30T10:44:08;9.60;;;7.20;;
14358;SDS011;7263;49.418;11.064;2024-01-30T10:46:41;8.60;;;7.57;;
14358;SDS011;7263;49.418;11.064;2024-01-30T10:49:10;9.10;;;6.70;;
14358;SDS011;7263;49.418;11.064;2024-01-30T10:51:38;8.63;;;6.80;;
14358;SDS011;7263;49.418;11.064;2024-01-30T10:54:12;10.00;;;6.50;;
14358;SDS011;7263;49.418;11.064;2024-01-30T10:56:45;10.33;;;7.57;;
14358;SDS011;7263;49.418;11.064;2024-01-30T10:59:13;9.77;;;6.63;;
14358;SDS011;7263;49.418;11.064;2024-01-30T11:01:43;7.60;;;6.57;;
14358;SDS011;7263;49.418;11.064;2024-01-30T11:04:11;9.67;;;6.73;;
14358;SDS011;7263;49.418;11.064;2024-01-30T11:06:40;10.13;;;6.80;;
14358;SDS011;7263;49.418;11.064;2024-01-30T11:09:11;7.97;;;6.23;;
14358;SDS011;7263;49.418;11.064;2024-01-30T11:11:52;9.10;;;6.87;;
14358;SDS011;7263;49.418;11.064;2024-01-30T11:14:24;8.47;;;6.37;;
14358;SDS011;7263;49.418;11.064;2024-01-30T11:16:52;9.10;;;7.00;;
14358;SDS011;7263;49.418;11.064;2024-01-30T11:19:22;13.00;;;8.63;;
14358;SDS011;7263;49.418;11.064;2024-01-30T11:21:50;9.53;;;6.97;;
14358;SDS011;7263;49.418;11.064;2024-01-30T11:24:19;8.57;;;6.67;;
14358;SDS011;7263;49.418;11.064;2024-01-30T11:26:49;9.63;;;6.50;;
14358;SDS011;7263;49.418;11.064;2024-01-30T11:29:25;9.70;;;6.77;;
14358;SDS011;7263;49.418;11.064;2024-01-30T11:31:53;13.23;;;7.77;;
14358;SDS011;7263;49.418;11.064;2024-01-30T11:34:21;10.23;;;6.67;;
14358;SDS011;7263;49.418;11.064;2024-01-30T11:36:52;13.07;;;9.90;;
14358;SDS011;7263;49.418;11.064;2024-01-30T11:39:24;10.23;;;8.23;;
14358;SDS011;7263;49.418;11.064;2024-01-30T11:41:58;7.27;;;6.53;;
14358;SDS011;7263;49.418;11.064;2024-01-30T11:44:25;8.13;;;6.73;;
14358;SDS011;7263;49.418;11.064;2024-01-30T11:46:52;8.67;;;6.80;;
14358;SDS011;7263;49.418;11.064;2024-01-30T11:49:19;7.73;;;6.50;;
14358;SDS011;7263;49.418;11.064;2024-01-30T11:51:46;7.90;;;6.93;;
14358;SDS011;7263;49.418;11.064;2024-01-30T11:54:19;9.53;;;6.83;;
14358;SDS011;7263;49.418;11.064;2024-01-30T11:56:49;6.87;;;6.10;;
14358;SDS011;7263;49.418;11.064;2024-01-30T11:59:22;7.80;;;6.30;;
14358;SDS011;7263;49.418;11.064;2024-01-30T12:01:55;8.87;;;6.37;;
14358;SDS011;7263;49.418;11.064;2024-01-30T12:04:28;10.07;;;6.30;;
14358;SDS011;7263;49.418;11.064;2024-01-30T12:06:58;8.10;;;6.60;;
14358;SDS011;7263;49.418;11.064;2024-01-30T12:09:25;7.43;;;6.20;;
14358;SDS011;7263;49.418;11.064;2024-01-30T12:12:01;9.13;;;5.83;;
14358;SDS011;7263;49.418;11.064;2024-01-30T12:14:32;7.90;;;6.40;;
14358;SDS011;7263;49.418;11.064;2024-01-30T12:17:01;10.70;;;6.60;;
14358;SDS011;7263;49.418;11.064;2024-01-30T12:19:30;8.47;;;5.73;;
14358;SDS011;7263;49.418;11.064;2024-01-30T12:21:57;8.53;;;6.27;;
14358;SDS011;7263;49.418;11.064;2024-01-30T12:24:24;8.23;;;6.47;;
14358;SDS011;7263;49.418;11.064;2024-01-30T12:26:51;8.67;;;5.67;;
14358;SDS011;7263;49.418;11.064;2024-01-30T12:29:19;8.57;;;6.53;;
14358;SDS011;7263;49.418;11.064;2024-01-30T12:31:52;7.97;;;6.00;;
14358;SDS011;7263;49.418;11.064;2024-01-30T12:34:33;9.10;;;5.80;;
14358;SDS011;7263;49.418;11.064;2024-01-30T12:37:06;6.33;;;5.27;;
14358;SDS011;7263;49.418;11.064;2024-01-30T12:39:43;9.53;;;6.00;;
14358;SDS011;7263;49.418;11.064;2024-01-30T12:42:15;7.97;;;6.20;;
14358;SDS011;7263;49.418;11.064;2024-01-30T12:44:42;8.03;;;6.43;;
14358;SDS011;7263;49.418;11.064;2024-01-30T12:47:10;9.37;;;6.20;;
14358;SDS011;7263;49.418;11.064;2024-01-30T12:49:48;8.17;;;6.00;;
14358;SDS011;7263;49.418;11.064;2024-01-30T12:52:25;6.87;;;5.80;;
14358;SDS011;7263;49.418;11.064;2024-01-30T12:54:55;8.40;;;6.17;;
14358;SDS011;7263;49.418;11.064;2024-01-30T12:57:22;8.03;;;6.07;;
14358;SDS011;7263;49.418;11.064;2024-01-30T12:59:49;9.57;;;5.80;;
14358;SDS011;7263;49.418;11.064;2024-01-30T13:02:17;6.97;;;5.93;;
14358;SDS011;7263;49.418;11.064;2024-01-30T13:04:44;8.83;;;6.50;;
14358;SDS011;7263;49.418;11.064;2024-01-30T13:07:11;9.23;;;6.17;;
14358;SDS011;7263;49.418;11.064;2024-01-30T13:09:40;8.40;;;6.20;;
14358;SDS011;7263;49.418;11.064;2024-01-30T13:12:07;7.07;;;6.13;;
14358;SDS011;7263;49.418;11.064;2024-01-30T13:14:34;9.13;;;6.17;;
14358;SDS011;7263;49.418;11.064;2024-01-30T13:17:05;9.90;;;6.67;;
14358;SDS011;7263;49.418;11.064;2024-01-30T13:19:36;8.50;;;6.60;;
14358;SDS011;7263;49.418;11.064;2024-01-30T13:22:02;9.53;;;7.13;;
14358;SDS011;7263;49.418;11.064;2024-01-30T13:24:32;8.87;;;6.73;;
14358;SDS011;7263;49.418;11.064;2024-01-30T13:27:02;7.70;;;6.37;;
14358;SDS011;7263;49.418;11.064;2024-01-30T13:29:30;8.20;;;6.87;;
14358;SDS011;7263;49.418;11.064;2024-01-30T13:32:00;9.13;;;6.93;;
14358;SDS011;7263;49.418;11.064;2024-01-30T13:34:30;8.10;;;6.27;;
14358;SDS011;7263;49.418;11.064;2024-01-30T13:36:59;9.67;;;5.93;;
14358;SDS011;7263;49.418;11.064;2024-01-30T13:39:26;9.40;;;7.50;;
14358;SDS011;7263;49.418;11.064;2024-01-30T13:41:55;8.77;;;6.43;;
14358;SDS011;7263;49.418;11.064;2024-01-30T13:44:22;10.13;;;7.83;;
14358;SDS011;7263;49.418;11.064;2024-01-30T13:46:51;10.03;;;6.67;;
14358;SDS011;7263;49.418;11.064;2024-01-30T13:49:20;9.40;;;6.43;;
14358;SDS011;7263;49.418;11.064;2024-01-30T13:51:49;9.67;;;7.47;;
14358;SDS011;7263;49.418;11.064;2024-01-30T13:54:23;9.30;;;6.73;;
14358;SDS011;7263;49.418;11.064;2024-01-30T13:56:59;8.83;;;6.13;;
14358;SDS011;7263;49.418;11.064;2024-01-30T13:59:37;7.67;;;5.97;;
14358;SDS011;7263;49.418;11.064;2024-01-30T14:02:04;8.90;;;6.00;;
14358;SDS011;7263;49.418;11.064;2024-01-30T14:04:33;9.20;;;5.57;;
14358;SDS011;7263;49.418;11.064;2024-01-30T14:07:02;10.53;;;6.50;;
14358;SDS011;7263;49.418;11.064;2024-01-30T14:09:30;8.00;;;6.30;;
14358;SDS011;7263;49.418;11.064;2024-01-30T14:12:04;8.37;;;6.10;;
14358;SDS011;7263;49.418;11.064;2024-01-30T14:14:38;8.80;;;5.87;;
14358;SDS011;7263;49.418;11.064;2024-01-30T14:17:06;8.47;;;6.27;;
14358;SDS011;7263;49.418;11.064;2024-01-30T14:19:39;7.57;;;6.33;;
14358;SDS011;7263;49.418;11.064;2024-01-30T14:22:06;8.87;;;6.33;;
14358;SDS011;7263;49.418;11.064;2024-01-30T14:24:37;6.90;;;6.20;;
14358;SDS011;7263;49.418;11.064;2024-01-30T14:27:06;10.23;;;7.07;;
14358;SDS011;7263;49.418;11.064;2024-01-30T14:29:33;7.63;;;6.37;;
14358;SDS011;7263;49.418;11.064;2024-01-30T14:32:00;7.27;;;6.07;;
14358;SDS011;7263;49.418;11.064;2024-01-30T14:34:29;7.47;;;6.13;;
14358;SDS011;7263;49.418;11.064;2024-01-30T14:37:09;9.70;;;7.30;;
14358;SDS011;7263;49.418;11.064;2024-01-30T14:39:43;11.03;;;6.40;;
14358;SDS011;7263;49.418;11.064;2024-01-30T14:42:12;9.90;;;6.70;;
14358;SDS011;7263;49.418;11.064;2024-01-30T14:44:44;8.73;;;6.47;;
14358;SDS011;7263;49.418;11.064;2024-01-30T14:47:11;9.63;;;6.50;;
14358;SDS011;7263;49.418;11.064;2024-01-30T14:49:39;8.67;;;6.50;;
14358;SDS011;7263;49.418;11.064;2024-01-30T14:52:11;27.53;;;15.63;;
14358;SDS011;7263;49.418;11.064;2024-01-30T14:54:44;11.97;;;8.93;;
14358;SDS011;7263;49.418;11.064;2024-01-30T14:57:14;9.30;;;8.02;;